White Plains, New York
Current Conditions -  °F | °C
As of 6:56 PM on Wednesday 22 Oct 2014 (Local Time) from KHPN Reporting Station
Moderate Rain Moderate Rain  
Wind Chill: 51°   Ceiling: 1400
Heat Index: 51°   Visibility: 3mi
Dew Point: 48°   Wind: 15mph
Humidity: 89%   Direction: 350°N
Pressure: 29.8"   Gusts: 25mph
Location:  41.03°N, 73.76°W
Report Text: KHPN 222256Z 35013G22KT 3SM RA BR BKN014 OVC020 11/09 A2980 RMK AO2 SLP092 P0004 T01060089
Loading
Personal Weather Stations






























Interactive Weather Map
Tropical Storm Tracking
New forecast layout! Learn more

10-Day Weather Forecast

Advertisements
Track Severe Weather on mobile